Saint Anne, Missouri
Current Conditions -  °F | °C
As of 3:51 AM on Tuesday 21 Oct 2014 (Local Time) from KSTL Reporting Station
Clear Clear  
Wind Chill: 10°   Ceiling: Unl
Heat Index: 10°   Visibility: 9mi
Dew Point:   Wind: 3mph
Humidity: 80%   Direction: 260°W
Pressure: 30.04"   Gusts: NA
Location:  38.7263°N, 90.3885°W
Report Text: KSTL 210851Z 26003KT 9SM CLR 10/07 A3004 RMK AO2 SLP166 T01000067 50003
Loading
Personal Weather Stations






























Interactive Weather Map
Tropical Storm Tracking
New forecast layout! Learn more

10-Day Weather Forecast

Advertisements
Track Severe Weather on mobile